sensor_id;sensor_type;location;lat;lon;timestamp;pressure;altitude;pressure_sealevel;temperature;humidity
75913;BME280;64592;52.168;21.040;2023-08-17T00:02:06;100650.78;;;26.03;66.46
75913;BME280;64592;52.168;21.040;2023-08-17T00:07:07;100640.16;;;26.00;66.86
75913;BME280;64592;52.168;21.040;2023-08-17T00:12:10;100653.97;;;26.00;67.33
75913;BME280;64592;52.168;21.040;2023-08-17T00:17:12;100653.97;;;26.00;67.63
75913;BME280;64592;52.168;21.040;2023-08-17T00:22:14;100645.88;;;25.99;68.11
75913;BME280;64592;52.168;21.040;2023-08-17T00:27:17;100640.56;;;25.97;67.87
75913;BME280;64592;52.168;21.040;2023-08-17T00:32:19;100647.59;;;25.93;68.03
75913;BME280;64592;52.168;21.040;2023-08-17T00:37:20;100657.34;;;25.89;69.02
75913;BME280;64592;52.168;21.040;2023-08-17T00:42:23;100668.56;;;25.81;69.28
75913;BME280;64592;52.168;21.040;2023-08-17T00:47:25;100669.41;;;25.75;69.43
75913;BME280;64592;52.168;21.040;2023-08-17T00:52:28;100676.41;;;25.71;70.15
75913;BME280;64592;52.168;21.040;2023-08-17T00:57:31;100668.53;;;25.68;70.08
75913;BME280;64592;52.168;21.040;2023-08-17T01:02:34;100671.28;;;25.68;70.65
75913;BME280;64592;52.168;21.040;2023-08-17T01:07:36;100672.53;;;25.65;70.89
75913;BME280;64592;52.168;21.040;2023-08-17T01:12:44;100660.41;;;25.60;71.20
75913;BME280;64592;52.168;21.040;2023-08-17T01:17:54;100647.19;;;25.55;71.23
75913;BME280;64592;52.168;21.040;2023-08-17T01:23:02;100651.41;;;25.51;70.61
75913;BME280;64592;52.168;21.040;2023-08-17T01:28:06;100646.31;;;25.48;70.38
75913;BME280;64592;52.168;21.040;2023-08-17T01:33:08;100660.53;;;25.45;70.62
75913;BME280;64592;52.168;21.040;2023-08-17T01:38:14;100650.97;;;25.41;71.34
75913;BME280;64592;52.168;21.040;2023-08-17T01:43:17;100655.63;;;25.40;71.39
75913;BME280;64592;52.168;21.040;2023-08-17T01:48:19;100655.63;;;25.40;72.14
75913;BME280;64592;52.168;21.040;2023-08-17T01:53:22;100660.50;;;25.38;72.57
75913;BME280;64592;52.168;21.040;2023-08-17T01:58:24;100663.66;;;25.35;72.24
75913;BME280;64592;52.168;21.040;2023-08-17T02:03:26;100653.00;;;25.26;72.39
75913;BME280;64592;52.168;21.040;2023-08-17T02:08:32;100641.94;;;25.19;72.88
75913;BME280;64592;52.168;21.040;2023-08-17T02:13:34;100655.44;;;25.07;73.27
75913;BME280;64592;52.168;21.040;2023-08-17T02:18:37;100644.81;;;25.04;73.36
75913;BME280;64592;52.168;21.040;2023-08-17T02:23:41;100636.78;;;25.09;73.25
75913;BME280;64592;52.168;21.040;2023-08-17T02:28:43;100633.81;;;25.11;73.09
75913;BME280;64592;52.168;21.040;2023-08-17T02:33:44;100639.56;;;25.16;73.52
75913;BME280;64592;52.168;21.040;2023-08-17T02:38:47;100638.91;;;25.14;73.86
75913;BME280;64592;52.168;21.040;2023-08-17T02:43:49;100646.50;;;25.05;74.09
75913;BME280;64592;52.168;21.040;2023-08-17T02:48:51;100649.88;;;25.01;74.32
75913;BME280;64592;52.168;21.040;2023-08-17T02:53:54;100662.16;;;24.98;74.68
75913;BME280;64592;52.168;21.040;2023-08-17T02:58:56;100647.28;;;24.93;74.44
75913;BME280;64592;52.168;21.040;2023-08-17T03:03:58;100655.94;;;24.90;74.56
75913;BME280;64592;52.168;21.040;2023-08-17T03:09:01;100662.88;;;24.86;73.89
75913;BME280;64592;52.168;21.040;2023-08-17T03:14:03;100683.66;;;24.82;73.70
75913;BME280;64592;52.168;21.040;2023-08-17T03:19:05;100696.81;;;24.80;73.89
75913;BME280;64592;52.168;21.040;2023-08-17T03:24:09;100708.88;;;24.79;74.44
75913;BME280;64592;52.168;21.040;2023-08-17T03:29:11;100719.25;;;24.76;74.19
75913;BME280;64592;52.168;21.040;2023-08-17T03:34:12;100705.22;;;24.71;73.82
75913;BME280;64592;52.168;21.040;2023-08-17T03:39:15;100702.06;;;24.74;73.54
75913;BME280;64592;52.168;21.040;2023-08-17T03:44:17;100684.44;;;24.75;73.18
75913;BME280;64592;52.168;21.040;2023-08-17T03:49:19;100691.84;;;24.75;72.68
75913;BME280;64592;52.168;21.040;2023-08-17T03:54:22;100703.75;;;24.75;72.60
75913;BME280;64592;52.168;21.040;2023-08-17T03:59:23;100708.63;;;24.73;72.53
75913;BME280;64592;52.168;21.040;2023-08-17T04:04:25;100707.59;;;24.74;72.62
75913;BME280;64592;52.168;21.040;2023-08-17T04:09:29;100723.06;;;24.75;73.18
75913;BME280;64592;52.168;21.040;2023-08-17T04:14:30;100714.94;;;24.67;73.51
75913;BME280;64592;52.168;21.040;2023-08-17T04:19:32;100716.19;;;24.65;73.53
75913;BME280;64592;52.168;21.040;2023-08-17T04:24:35;100712.19;;;24.67;73.48
75913;BME280;64592;52.168;21.040;2023-08-17T04:29:37;100711.13;;;24.68;73.60
75913;BME280;64592;52.168;21.040;2023-08-17T04:34:41;100711.78;;;24.70;72.99
75913;BME280;64592;52.168;21.040;2023-08-17T04:39:44;100709.88;;;24.71;73.19
75913;BME280;64592;52.168;21.040;2023-08-17T04:44:48;100711.53;;;24.65;72.26
75913;BME280;64592;52.168;21.040;2023-08-17T04:49:50;100716.56;;;24.62;72.55
75913;BME280;64592;52.168;21.040;2023-08-17T04:54:53;100719.75;;;24.59;72.62
75913;BME280;64592;52.168;21.040;2023-08-17T04:59:54;100723.75;;;24.56;73.39
75913;BME280;64592;52.168;21.040;2023-08-17T05:04:56;100730.13;;;24.57;73.26
75913;BME280;64592;52.168;21.040;2023-08-17T05:09:59;100737.53;;;24.56;73.44
75913;BME280;64592;52.168;21.040;2023-08-17T05:15:01;100739.63;;;24.54;73.07
75913;BME280;64592;52.168;21.040;2023-08-17T05:20:04;100726.25;;;24.51;72.69
75913;BME280;64592;52.168;21.040;2023-08-17T05:25:07;100725.84;;;24.54;72.45
75913;BME280;64592;52.168;21.040;2023-08-17T05:30:10;100727.72;;;24.54;71.82
75913;BME280;64592;52.168;21.040;2023-08-17T05:35:12;100725.66;;;24.56;72.20
75913;BME280;64592;52.168;21.040;2023-08-17T05:40:15;100729.91;;;24.58;71.35
75913;BME280;64592;52.168;21.040;2023-08-17T05:45:17;100729.72;;;24.60;70.98
75913;BME280;64592;52.168;21.040;2023-08-17T05:50:18;100733.59;;;24.65;69.63
75913;BME280;64592;52.168;21.040;2023-08-17T05:55:21;100723.06;;;24.75;69.31
75913;BME280;64592;52.168;21.040;2023-08-17T06:00:23;100716.34;;;24.85;68.18
75913;BME280;64592;52.168;21.040;2023-08-17T06:05:25;100716.03;;;24.94;67.49
75913;BME280;64592;52.168;21.040;2023-08-17T06:10:28;100709.91;;;24.99;67.39
75913;BME280;64592;52.168;21.040;2023-08-17T06:15:30;100705.53;;;25.04;67.51
75913;BME280;64592;52.168;21.040;2023-08-17T06:20:32;100709.63;;;25.15;67.47
75913;BME280;64592;52.168;21.040;2023-08-17T06:25:35;100733.25;;;25.24;68.28
75913;BME280;64592;52.168;21.040;2023-08-17T06:30:36;100732.03;;;25.33;68.28
75913;BME280;64592;52.168;21.040;2023-08-17T06:35:38;100731.63;;;25.36;68.03
75913;BME280;64592;52.168;21.040;2023-08-17T06:40:41;100726.13;;;25.43;68.52
75913;BME280;64592;52.168;21.040;2023-08-17T06:45:43;100730.88;;;25.49;67.51
75913;BME280;64592;52.168;21.040;2023-08-17T06:50:45;100735.19;;;25.58;65.94
75913;BME280;64592;52.168;21.040;2023-08-17T06:55:49;100734.81;;;25.68;65.87
75913;BME280;64592;52.168;21.040;2023-08-17T07:00:50;100735.28;;;25.71;65.46
75913;BME280;64592;52.168;21.040;2023-08-17T07:05:52;100736.34;;;25.77;65.67
75913;BME280;64592;52.168;21.040;2023-08-17T07:10:55;100742.09;;;25.82;65.15
75913;BME280;64592;52.168;21.040;2023-08-17T07:15:57;100738.50;;;25.88;64.99
75913;BME280;64592;52.168;21.040;2023-08-17T07:20:59;100720.91;;;25.96;64.99
75913;BME280;64592;52.168;21.040;2023-08-17T07:26:02;100728.16;;;26.03;64.14
75913;BME280;64592;52.168;21.040;2023-08-17T07:31:04;100731.19;;;26.08;64.36
75913;BME280;64592;52.168;21.040;2023-08-17T07:36:07;100738.84;;;26.13;64.40
75913;BME280;64592;52.168;21.040;2023-08-17T07:41:10;100745.63;;;26.17;64.09
75913;BME280;64592;52.168;21.040;2023-08-17T07:46:12;100743.97;;;26.22;63.74
75913;BME280;64592;52.168;21.040;2023-08-17T07:51:14;100754.63;;;26.25;66.14
75913;BME280;64592;52.168;21.040;2023-08-17T07:56:17;100755.97;;;26.36;65.89
75913;BME280;64592;52.168;21.040;2023-08-17T08:01:19;100752.16;;;26.44;65.48
75913;BME280;64592;52.168;21.040;2023-08-17T08:06:21;100753.88;;;26.51;65.41
75913;BME280;64592;52.168;21.040;2023-08-17T08:11:25;100754.72;;;26.58;65.29
75913;BME280;64592;52.168;21.040;2023-08-17T08:16:28;100754.31;;;26.75;64.35
75913;BME280;64592;52.168;21.040;2023-08-17T08:21:30;100756.44;;;26.86;62.21
75913;BME280;64592;52.168;21.040;2023-08-17T08:26:34;100751.78;;;26.99;62.73
75913;BME280;64592;52.168;21.040;2023-08-17T08:31:36;100751.38;;;27.09;61.36
75913;BME280;64592;52.168;21.040;2023-08-17T08:36:37;100749.66;;;27.15;61.44
75913;BME280;64592;52.168;21.040;2023-08-17T08:41:41;100750.72;;;27.20;60.86
75913;BME280;64592;52.168;21.040;2023-08-17T08:46:44;100754.13;;;27.29;59.34
75913;BME280;64592;52.168;21.040;2023-08-17T08:51:48;100746.66;;;27.36;59.12
75913;BME280;64592;52.168;21.040;2023-08-17T08:56:57;100751.31;;;27.42;58.60
75913;BME280;64592;52.168;21.040;2023-08-17T09:02:00;100756.84;;;27.42;58.95
75913;BME280;64592;52.168;21.040;2023-08-17T09:07:02;100753.03;;;27.43;59.17
75913;BME280;64592;52.168;21.040;2023-08-17T09:12:07;100757.50;;;27.44;59.98
75913;BME280;64592;52.168;21.040;2023-08-17T09:17:10;100754.72;;;27.51;60.55
75913;BME280;64592;52.168;21.040;2023-08-17T09:22:12;100750.47;;;27.61;59.64
75913;BME280;64592;52.168;21.040;2023-08-17T09:27:15;100745.75;;;27.68;60.22
75913;BME280;64592;52.168;21.040;2023-08-17T09:32:16;100757.25;;;27.78;60.17
75913;BME280;64592;52.168;21.040;2023-08-17T09:37:18;100750.38;;;27.88;59.87
75913;BME280;64592;52.168;21.040;2023-08-17T09:42:22;100746.47;;;28.02;60.27
75913;BME280;64592;52.168;21.040;2023-08-17T09:47:25;100746.47;;;28.15;59.32
75913;BME280;64592;52.168;21.040;2023-08-17T09:52:27;100738.72;;;28.24;57.52
75913;BME280;64592;52.168;21.040;2023-08-17T09:57:30;100735.47;;;28.33;56.71
75913;BME280;64592;52.168;21.040;2023-08-17T10:02:33;100742.03;;;28.45;56.24
75913;BME280;64592;52.168;21.040;2023-08-17T10:07:38;100738.25;;;28.65;54.47
75913;BME280;64592;52.168;21.040;2023-08-17T10:12:45;100733.63;;;28.90;53.33
75913;BME280;64592;52.168;21.040;2023-08-17T10:17:55;100731.22;;;29.18;54.22
75913;BME280;64592;52.168;21.040;2023-08-17T10:23:03;100733.91;;;29.50;50.16
75913;BME280;64592;52.168;21.040;2023-08-17T10:28:10;100725.91;;;29.78;50.51
75913;BME280;64592;52.168;21.040;2023-08-17T10:33:12;100724.06;;;30.08;48.54
75913;BME280;64592;52.168;21.040;2023-08-17T10:38:15;100714.25;;;30.36;47.39
75913;BME280;64592;52.168;21.040;2023-08-17T10:43:19;100713.97;;;30.56;45.76
75913;BME280;64592;52.168;21.040;2023-08-17T10:48:27;100714.25;;;30.77;38.87
75913;BME280;64592;52.168;21.040;2023-08-17T10:53:36;100711.19;;;31.09;39.78
75913;BME280;64592;52.168;21.040;2023-08-17T10:58:42;100717.94;;;31.36;40.15
75913;BME280;64592;52.168;21.040;2023-08-17T11:03:44;100708.94;;;31.57;39.73
75913;BME280;64592;52.168;21.040;2023-08-17T11:08:52;100704.44;;;31.80;36.06
75913;BME280;64592;52.168;21.040;2023-08-17T11:13:57;100697.47;;;32.06;37.65
75913;BME280;64592;52.168;21.040;2023-08-17T11:19:00;100692.06;;;32.27;37.00
75913;BME280;64592;52.168;21.040;2023-08-17T11:24:02;100694.66;;;32.46;36.61
75913;BME280;64592;52.168;21.040;2023-08-17T11:29:10;100680.78;;;32.51;34.89
75913;BME280;64592;52.168;21.040;2023-08-17T11:34:14;100690.22;;;32.78;34.82
75913;BME280;64592;52.168;21.040;2023-08-17T11:39:15;100697.94;;;33.04;34.79
75913;BME280;64592;52.168;21.040;2023-08-17T11:44:22;100682.00;;;33.22;32.74
75913;BME280;64592;52.168;21.040;2023-08-17T11:49:23;100681.78;;;33.45;32.43
75913;BME280;64592;52.168;21.040;2023-08-17T11:54:25;100676.66;;;33.59;31.42
75913;BME280;64592;52.168;21.040;2023-08-17T11:59:29;100682.28;;;33.80;32.52
75913;BME280;64592;52.168;21.040;2023-08-17T12:04:33;100675.44;;;33.71;32.67
75913;BME280;64592;52.168;21.040;2023-08-17T12:09:35;100679.25;;;33.65;32.43
75913;BME280;64592;52.168;21.040;2023-08-17T12:14:41;100671.03;;;33.75;33.50
75913;BME280;64592;52.168;21.040;2023-08-17T12:19:43;100669.56;;;33.95;31.57
75913;BME280;64592;52.168;21.040;2023-08-17T12:24:45;100677.19;;;33.99;32.55
75913;BME280;64592;52.168;21.040;2023-08-17T12:29:48;100672.31;;;33.89;33.54
75913;BME280;64592;52.168;21.040;2023-08-17T12:34:50;100670.88;;;33.87;33.15
75913;BME280;64592;52.168;21.040;2023-08-17T12:39:52;100671.38;;;33.79;32.54
75913;BME280;64592;52.168;21.040;2023-08-17T12:44:55;100676.63;;;33.75;30.80
75913;BME280;64592;52.168;21.040;2023-08-17T12:49:56;100665.44;;;33.75;32.09
75913;BME280;64592;52.168;21.040;2023-08-17T12:54:58;100660.81;;;33.64;32.39
75913;BME280;64592;52.168;21.040;2023-08-17T13:00:01;100663.53;;;33.81;33.12
75913;BME280;64592;52.168;21.040;2023-08-17T13:05:03;100657.28;;;33.96;31.75
75913;BME280;64592;52.168;21.040;2023-08-17T13:10:06;100660.84;;;34.13;31.49
75913;BME280;64592;52.168;21.040;2023-08-17T13:15:09;100650.50;;;34.40;31.43
75913;BME280;64592;52.168;21.040;2023-08-17T13:20:11;100653.44;;;34.55;31.57
75913;BME280;64592;52.168;21.040;2023-08-17T13:25:12;100651.41;;;34.78;31.02
75913;BME280;64592;52.168;21.040;2023-08-17T13:30:15;100641.50;;;35.02;30.18
75913;BME280;64592;52.168;21.040;2023-08-17T13:35:17;100649.75;;;35.19;30.81
75913;BME280;64592;52.168;21.040;2023-08-17T13:40:19;100646.75;;;35.25;32.30
75913;BME280;64592;52.168;21.040;2023-08-17T13:45:22;100634.19;;;35.38;31.59
75913;BME280;64592;52.168;21.040;2023-08-17T13:50:24;100642.13;;;35.56;28.36
75913;BME280;64592;52.168;21.040;2023-08-17T13:55:26;100646.75;;;35.83;28.46
75913;BME280;64592;52.168;21.040;2023-08-17T14:00:29;100635.31;;;36.04;29.07
75913;BME280;64592;52.168;21.040;2023-08-17T14:05:31;100643.25;;;36.33;28.51
75913;BME280;64592;52.168;21.040;2023-08-17T14:10:33;100644.09;;;36.28;28.13
75913;BME280;64592;52.168;21.040;2023-08-17T14:15:37;100626.13;;;36.49;28.05
75913;BME280;64592;52.168;21.040;2023-08-17T14:20:39;100635.41;;;36.65;27.39
75913;BME280;64592;52.168;21.040;2023-08-17T14:25:41;100623.03;;;36.97;26.44
75913;BME280;64592;52.168;21.040;2023-08-17T14:30:44;100612.63;;;37.17;26.53
75913;BME280;64592;52.168;21.040;2023-08-17T14:35:45;100618.53;;;37.16;25.99
75913;BME280;64592;52.168;21.040;2023-08-17T14:40:48;100619.56;;;37.45;27.18
75913;BME280;64592;52.168;21.040;2023-08-17T14:45:51;100615.53;;;37.72;26.70
75913;BME280;64592;52.168;21.040;2023-08-17T14:50:52;100608.72;;;37.83;25.93
75913;BME280;64592;52.168;21.040;2023-08-17T14:55:54;100610.13;;;37.80;25.91
75913;BME280;64592;52.168;21.040;2023-08-17T15:00:57;100609.22;;;37.90;25.24
75913;BME280;64592;52.168;21.040;2023-08-17T15:05:59;100615.34;;;38.02;25.03
75913;BME280;64592;52.168;21.040;2023-08-17T15:11:01;100619.03;;;37.97;25.75
75913;BME280;64592;52.168;21.040;2023-08-17T15:16:05;100617.41;;;37.91;25.78
75913;BME280;64592;52.168;21.040;2023-08-17T15:21:07;100618.91;;;37.68;24.53
75913;BME280;64592;52.168;21.040;2023-08-17T15:26:09;100604.88;;;37.63;24.67
75913;BME280;64592;52.168;21.040;2023-08-17T15:31:12;100603.19;;;37.52;25.79
75913;BME280;64592;52.168;21.040;2023-08-17T15:36:14;100595.94;;;37.41;25.61
75913;BME280;64592;52.168;21.040;2023-08-17T15:41:18;100589.84;;;36.93;25.46
75913;BME280;64592;52.168;21.040;2023-08-17T15:46:21;100595.50;;;36.33;26.51
75913;BME280;64592;52.168;21.040;2023-08-17T15:51:23;100607.09;;;35.64;27.39
75913;BME280;64592;52.168;21.040;2023-08-17T15:56:27;100605.66;;;35.09;27.80
75913;BME280;64592;52.168;21.040;2023-08-17T16:01:30;100603.94;;;34.66;28.17
75913;BME280;64592;52.168;21.040;2023-08-17T16:06:32;100614.47;;;34.22;28.39
75913;BME280;64592;52.168;21.040;2023-08-17T16:11:34;100617.53;;;33.94;30.53
75913;BME280;64592;52.168;21.040;2023-08-17T16:16:37;100621.03;;;33.62;30.70
75913;BME280;64592;52.168;21.040;2023-08-17T16:21:39;100628.44;;;33.30;31.15
75913;BME280;64592;52.168;21.040;2023-08-17T16:26:40;100632.63;;;33.10;32.13
75913;BME280;64592;52.168;21.040;2023-08-17T16:31:43;100628.81;;;32.83;31.37
75913;BME280;64592;52.168;21.040;2023-08-17T16:36:45;100628.22;;;32.64;32.21
75913;BME280;64592;52.168;21.040;2023-08-17T16:41:47;100622.75;;;32.53;32.14
75913;BME280;64592;52.168;21.040;2023-08-17T16:46:50;100628.63;;;32.39;33.61
75913;BME280;64592;52.168;21.040;2023-08-17T16:51:51;100632.59;;;32.27;33.95
75913;BME280;64592;52.168;21.040;2023-08-17T16:56:53;100620.88;;;32.13;34.20
75913;BME280;64592;52.168;21.040;2023-08-17T17:01:57;100622.97;;;32.06;34.43
75913;BME280;64592;52.168;21.040;2023-08-17T17:06:59;100631.75;;;31.98;35.48
75913;BME280;64592;52.168;21.040;2023-08-17T17:12:01;100632.38;;;31.88;35.17
75913;BME280;64592;52.168;21.040;2023-08-17T17:17:04;100625.06;;;31.71;36.52
75913;BME280;64592;52.168;21.040;2023-08-17T17:22:06;100625.81;;;31.66;36.34
75913;BME280;64592;52.168;21.040;2023-08-17T17:27:07;100638.66;;;31.55;37.26
75913;BME280;64592;52.168;21.040;2023-08-17T17:32:10;100642.31;;;31.44;37.59
75913;BME280;64592;52.168;21.040;2023-08-17T17:37:12;100627.91;;;31.36;38.72
75913;BME280;64592;52.168;21.040;2023-08-17T17:42:14;100630.72;;;31.24;39.08
75913;BME280;64592;52.168;21.040;2023-08-17T17:47:17;100623.22;;;31.13;39.19
75913;BME280;64592;52.168;21.040;2023-08-17T17:52:19;100628.41;;;30.98;39.72
75913;BME280;64592;52.168;21.040;2023-08-17T17:57:22;100622.09;;;30.91;40.35
75913;BME280;64592;52.168;21.040;2023-08-17T18:02:26;100621.88;;;30.80;40.66
75913;BME280;64592;52.168;21.040;2023-08-17T18:07:27;100618.84;;;30.70;40.79
75913;BME280;64592;52.168;21.040;2023-08-17T18:12:29;100611.94;;;30.61;41.04
75913;BME280;64592;52.168;21.040;2023-08-17T18:17:34;100618.97;;;30.52;41.40
75913;BME280;64592;52.168;21.040;2023-08-17T18:22:35;100625.31;;;30.41;42.08
75913;BME280;64592;52.168;21.040;2023-08-17T18:27:38;100620.31;;;30.31;42.65
75913;BME280;64592;52.168;21.040;2023-08-17T18:32:42;100622.63;;;30.23;43.52
75913;BME280;64592;52.168;21.040;2023-08-17T18:37:44;100614.72;;;30.08;45.21
75913;BME280;64592;52.168;21.040;2023-08-17T18:42:46;100612.38;;;29.93;44.64
75913;BME280;64592;52.168;21.040;2023-08-17T18:47:49;100618.91;;;29.81;46.05
75913;BME280;64592;52.168;21.040;2023-08-17T18:52:50;100611.00;;;29.66;47.41
75913;BME280;64592;52.168;21.040;2023-08-17T18:57:52;100613.97;;;29.53;47.66
75913;BME280;64592;52.168;21.040;2023-08-17T19:02:57;100612.44;;;29.39;48.07
75913;BME280;64592;52.168;21.040;2023-08-17T19:07:58;100610.22;;;29.22;48.92
75913;BME280;64592;52.168;21.040;2023-08-17T19:13:00;100606.53;;;29.10;49.20
75913;BME280;64592;52.168;21.040;2023-08-17T19:18:04;100611.31;;;29.03;47.40
75913;BME280;64592;52.168;21.040;2023-08-17T19:23:06;100604.81;;;28.91;47.29
75913;BME280;64592;52.168;21.040;2023-08-17T19:28:08;100606.81;;;28.84;47.48
75913;BME280;64592;52.168;21.040;2023-08-17T19:33:11;100607.75;;;28.71;47.83
75913;BME280;64592;52.168;21.040;2023-08-17T19:38:13;100610.19;;;28.61;46.94
75913;BME280;64592;52.168;21.040;2023-08-17T19:43:14;100602.41;;;28.51;47.13
75913;BME280;64592;52.168;21.040;2023-08-17T19:48:17;100607.38;;;28.43;47.15
75913;BME280;64592;52.168;21.040;2023-08-17T19:53:19;100602.50;;;28.38;47.06
75913;BME280;64592;52.168;21.040;2023-08-17T19:58:21;100605.16;;;28.27;47.05
75913;BME280;64592;52.168;21.040;2023-08-17T20:03:24;100611.81;;;28.19;47.87
75913;BME280;64592;52.168;21.040;2023-08-17T20:08:26;100614.84;;;28.11;47.69
75913;BME280;64592;52.168;21.040;2023-08-17T20:13:27;100623.63;;;28.08;48.46
75913;BME280;64592;52.168;21.040;2023-08-17T20:18:30;100619.41;;;27.99;48.70
75913;BME280;64592;52.168;21.040;2023-08-17T20:23:32;100632.19;;;28.00;49.11
75913;BME280;64592;52.168;21.040;2023-08-17T20:28:34;100635.63;;;27.95;49.28
75913;BME280;64592;52.168;21.040;2023-08-17T20:33:37;100652.78;;;27.72;49.71
75913;BME280;64592;52.168;21.040;2023-08-17T20:38:39;100649.44;;;27.57;50.32
75913;BME280;64592;52.168;21.040;2023-08-17T20:43:41;100665.66;;;27.47;50.31
75913;BME280;64592;52.168;21.040;2023-08-17T20:48:44;100659.31;;;27.40;50.63
75913;BME280;64592;52.168;21.040;2023-08-17T20:53:46;100653.81;;;27.27;50.92
75913;BME280;64592;52.168;21.040;2023-08-17T20:58:48;100660.19;;;27.21;50.67
75913;BME280;64592;52.168;21.040;2023-08-17T21:03:51;100663.19;;;27.19;51.29
75913;BME280;64592;52.168;21.040;2023-08-17T21:08:53;100663.41;;;27.18;51.49
75913;BME280;64592;52.168;21.040;2023-08-17T21:13:54;100661.53;;;27.12;51.45
75913;BME280;64592;52.168;21.040;2023-08-17T21:18:57;100654.91;;;27.06;51.81
75913;BME280;64592;52.168;21.040;2023-08-17T21:24:00;100651.72;;;27.02;51.67
75913;BME280;64592;52.168;21.040;2023-08-17T21:29:03;100656.84;;;26.92;51.94
75913;BME280;64592;52.168;21.040;2023-08-17T21:34:06;100660.25;;;26.81;52.44
75913;BME280;64592;52.168;21.040;2023-08-17T21:39:07;100647.91;;;26.64;53.10
75913;BME280;64592;52.168;21.040;2023-08-17T21:44:09;100639.81;;;26.56;53.20
75913;BME280;64592;52.168;21.040;2023-08-17T21:49:12;100654.72;;;26.48;53.42
75913;BME280;64592;52.168;21.040;2023-08-17T21:54:14;100675.56;;;26.38;53.67
75913;BME280;64592;52.168;21.040;2023-08-17T21:59:16;100686.16;;;26.27;53.95
75913;BME280;64592;52.168;21.040;2023-08-17T22:04:19;100679.13;;;26.32;53.99
75913;BME280;64592;52.168;21.040;2023-08-17T22:09:20;100673.19;;;26.28;54.42
75913;BME280;64592;52.168;21.040;2023-08-17T22:14:22;100664.84;;;26.15;54.77
75913;BME280;64592;52.168;21.040;2023-08-17T22:19:25;100653.75;;;26.02;55.43
75913;BME280;64592;52.168;21.040;2023-08-17T22:24:28;100677.56;;;26.03;55.33
75913;BME280;64592;52.168;21.040;2023-08-17T22:29:30;100673.06;;;25.95;56.06
75913;BME280;64592;52.168;21.040;2023-08-17T22:34:33;100687.72;;;25.89;56.17
75913;BME280;64592;52.168;21.040;2023-08-17T22:39:35;100687.31;;;25.85;55.97
75913;BME280;64592;52.168;21.040;2023-08-17T22:44:36;100702.34;;;25.76;56.14
75913;BME280;64592;52.168;21.040;2023-08-17T22:49:40;100708.06;;;25.75;56.61
75913;BME280;64592;52.168;21.040;2023-08-17T22:54:41;100714.25;;;25.77;56.67
75913;BME280;64592;52.168;21.040;2023-08-17T22:59:43;100711.91;;;25.80;56.12
75913;BME280;64592;52.168;21.040;2023-08-17T23:04:46;100696.44;;;25.86;57.28
75913;BME280;64592;52.168;21.040;2023-08-17T23:09:47;100701.75;;;25.94;56.84
75913;BME280;64592;52.168;21.040;2023-08-17T23:14:49;100695.41;;;25.94;57.19
75913;BME280;64592;52.168;21.040;2023-08-17T23:19:52;100696.22;;;25.94;58.63
75913;BME280;64592;52.168;21.040;2023-08-17T23:24:54;100695.19;;;25.95;58.98
75913;BME280;64592;52.168;21.040;2023-08-17T23:29:56;100691.16;;;25.91;58.67
75913;BME280;64592;52.168;21.040;2023-08-17T23:34:59;100675.41;;;25.85;58.83
75913;BME280;64592;52.168;21.040;2023-08-17T23:40:00;100670.28;;;25.82;59.42
75913;BME280;64592;52.168;21.040;2023-08-17T23:45:04;100668.34;;;25.76;59.44
75913;BME280;64592;52.168;21.040;2023-08-17T23:50:09;100666.84;;;25.73;59.90
75913;BME280;64592;52.168;21.040;2023-08-17T23:55:11;100676.63;;;25.69;60.39
